Aviation Digital Data Service (ADDS)

Output produced by METARs form (1339 UTC 21 August 2019)
found at http://www.aviationweather.gov/metar/data/
 
LRTZ 211300Z 09012KT 9999 FEW100 BKN200 31/15 Q1017 BLU BLU
TAF LRTZ 211100Z 2112/2212 08012KT 9999 SCT200 
     BECMG 2116/2118 VRB03KT 
     BECMG 2121/2123 33014KT
       
LRCK 211330Z 06010KT 020V080 CAVOK 33/14 Q1017 NOSIG
TAF LRCK 211100Z 2112/2212 06014KT CAVOK 
     BECMG 2117/2119 VRB04KT 
     BECMG 2202/2204 36012KT
       
LRTC 211330Z 32010KT 290V360 CAVOK 34/07 Q1017
TAF LRTC 211100Z 2112/2121 06012KT CAVOK 
     BECMG 2118/2120 VRB04KT
       
LRFT 211300Z 04012KT 9999 SKC 33/14 Q1018 BLU BLU
TAF LRFT 211100Z 2112/2212 02012KT 9999 SCT100 
     BECMG 2118/2120 VRB03KT SKC
       
LRBO 211300Z 03010KT 9999 SKC 33/10 Q1018 BLU BLU
TAF LRBO 211100Z 2112/2212 04008KT 9999 SKC 
     BECMG 2203/2205 03018KT 
     TEMPO 2208/2212 02020G30KT
       
LRBC 211330Z 03004KT 340V090 CAVOK 33/11 Q1019
TAF LRBC 211100Z 2112/2121 VRB04KT CAVOK
       
LRIA 211330Z 10004KT 050V170 CAVOK 33/09 Q1019
TAF LRIA 211100Z 2112/2121 VRB04KT CAVOK
       
LRSV 211330Z AUTO VRB03KT 9999 NCD 31/10 Q1021
TAF LRSV 211100Z 2112/2121 15006KT CAVOK
       
LROP 211330Z 08005KT CAVOK 33/10 Q1018 NOSIG
TAF LROP 211100Z 2112/2212 VRB04KT CAVOK 
     BECMG 2210/2212 04010KT
       
LRBS 211330Z 12004KT 060V160 CAVOK 32/12 Q1018 NOSIG
TAF LRBS 211100Z 2112/2212 VRB04KT CAVOK 
     BECMG 2210/2212 04010KT
       
LRCV 211330Z VRB04KT CAVOK 33/11 Q1018
TAF LRCV 211100Z 2112/2121 VRB04KT CAVOK
       
LRSB 211330Z 04006KT 350V080 9999 FEW048 SCT063 32/15 Q1021
TAF LRSB 211100Z 2112/2212 VRB04KT CAVOK
       
LRAR 211330Z VRB05KT CAVOK 34/12 Q1018
TAF LRAR 211100Z 2112/2121 28008KT CAVOK
       
LRCL 211330Z VRB02KT 9999 FEW045 33/14 Q1020
TAF LRCL 211100Z 2112/2121 06006KT 9999 SCT045 
     PROB30 
     TEMPO 2112/2118 SCT040CB
       
LRTR 211330Z 31008KT CAVOK 34/13 Q1018
TAF LRTR 211100Z 2112/2212 VRB04KT CAVOK 
     BECMG 2203/2205 01010KT
       
LRTM 211330Z VRB03KT CAVOK 32/17 Q1019
TAF LRTM 211100Z 2112/2121 VRB04KT 9999 SCT040
       
LRBM 211330Z 25009KT 9999 FEW046 34/13 Q1018
TAF LRBM 211100Z 2112/2121 VRB04KT CAVOK
       
LRSM 211330Z 28003KT 230V340 CAVOK 34/16 Q1018
TAF LRSM 211100Z 2112/2121 VRB04KT CAVOK 
     BECMG 2112/2114 30012KT
       
LROD 211330Z VRB04KT CAVOK 35/13 Q1019
TAF LROD 211100Z 2112/2121 32008KT CAVOK
       
LRCT 211300Z 05006KT 9999 FEW040 31/15 Q1020 BLU BLU
TAF LRCT 211100Z 2112/2212 35006KT 9999 FEW040 
     BECMG 2117/2119 FEW070